Terminal Aerodrome Forecast
Issued by NWS

Home | Current Version | Previous Version | Graphics & Text | Print | Product List | Glossary On
Versions: 1 2 3 4 5 6 7 8 9 10 11 12 13 14 15 16 17 18 19 20 21 22 23 24 25
000
FTUS43 KBIS 281739
TAFMOT
TAF
KMOT 281739Z 2818/2918 33011KT P6SM BKN020
     FM282000 33011KT P6SM VCSH BKN040
     FM290100 34011KT P6SM VCTS BKN050CB
     FM290400 36009KT P6SM BKN015
     FM291500 36006KT P6SM SCT030=

USA.gov is the U.S. government's official web portal to all federal, state and local government web resources and services.